Time;durP1;ratioP1;P1;durP2;ratioP2;P2;SDS_P1;SDS_P2;PMS_P1;PMS_P2;Temp;Humidity;BMP_temperature;BMP_pressure;BME280_temperature;BME280_humidity;BME280_pressure;Samples;Min_cycle;Max_cycle;Signal;HPM_P1;HPM_P2
2021/06/06 00:02:05;;;;;;;14.32;11.02;;;;;;;12.66;85.54;99485.22;5052435;28;20044;-62
2021/06/06 00:04:31;;;;;;;14.55;9.90;;;;;;;12.63;85.32;99480.03;5053397;28;20059;-61
2021/06/06 00:06:58;;;;;;;15.32;10.10;;;;;;;12.63;85.52;99484.38;5053105;28;20045;-61
2021/06/06 00:09:24;;;;;;;13.98;9.32;;;;;;;12.61;85.73;99474.81;5052877;28;20041;-61
2021/06/06 00:11:52;;;;;;;15.40;10.88;;;;;;;12.63;85.46;99473.94;5053335;28;20049;-61
2021/06/06 00:14:19;;;;;;;14.52;10.10;;;;;;;12.64;86.75;99471.31;5052945;28;20049;-61
2021/06/06 00:16:47;;;;;;;14.57;10.00;;;;;;;12.66;85.76;99471.28;5052701;28;20052;-62
2021/06/06 00:19:14;;;;;;;15.80;11.23;;;;;;;12.67;85.74;99470.41;5053104;28;20048;-62
2021/06/06 00:21:41;;;;;;;14.68;11.05;;;;;;;12.69;85.61;99473.88;5052581;28;20480;-61
2021/06/06 00:24:08;;;;;;;16.02;10.98;;;;;;;12.72;87.02;99472.09;5052749;28;20041;-62
2021/06/06 00:26:34;;;;;;;16.50;11.38;;;;;;;12.74;85.92;99467.72;5052790;28;20055;-61
2021/06/06 00:29:00;;;;;;;15.73;11.52;;;;;;;12.75;86.82;99474.66;5052799;28;20048;-62
2021/06/06 00:31:27;;;;;;;16.95;10.93;;;;;;;12.77;85.54;99478.13;5052650;28;20111;-62
2021/06/06 00:33:53;;;;;;;16.02;11.15;;;;;;;12.78;86.39;99479.84;5052619;28;20049;-62
2021/06/06 00:36:21;;;;;;;14.13;10.43;;;;;;;12.79;86.09;99479.00;5052668;28;20044;-62
2021/06/06 00:38:47;;;;;;;14.07;10.07;;;;;;;12.81;86.01;99481.56;5052804;28;20118;-62
2021/06/06 00:41:14;;;;;;;14.15;10.70;;;;;;;12.82;86.24;99477.22;5052663;28;20049;-62
2021/06/06 00:43:40;;;;;;;14.68;11.32;;;;;;;12.83;85.67;99473.72;5052708;28;20072;-62
2021/06/06 00:46:06;;;;;;;15.52;11.02;;;;;;;12.83;86.06;99476.31;5052599;28;20044;-62
2021/06/06 00:48:33;;;;;;;15.20;11.23;;;;;;;12.85;85.93;99469.31;5052513;28;20418;-62
2021/06/06 00:51:00;;;;;;;15.93;11.30;;;;;;;12.87;85.93;99470.16;5052120;28;20102;-62
2021/06/06 00:53:33;;;;;;;15.00;11.00;;;;;;;12.88;85.84;99464.06;5052585;28;20052;-62
2021/06/06 00:55:59;;;;;;;15.38;11.23;;;;;;;12.89;86.43;99463.16;5051744;28;20052;-61
2021/06/06 00:58:26;;;;;;;16.75;10.77;;;;;;;12.89;85.71;99465.78;5052388;28;20048;-61
2021/06/06 01:00:53;;;;;;;15.07;10.57;;;;;;;12.88;85.28;99467.53;5052511;28;20118;-62
2021/06/06 01:03:19;;;;;;;14.82;11.02;;;;;;;12.89;86.32;99469.28;5052168;28;20102;-62
2021/06/06 01:05:48;;;;;;;15.15;11.05;;;;;;;12.90;85.60;99464.91;5052246;28;20376;-61
2021/06/06 01:08:15;;;;;;;14.45;10.15;;;;;;;12.88;86.09;99464.06;5051941;28;20052;-61
2021/06/06 01:10:43;;;;;;;13.10;9.98;;;;;;;12.88;85.38;99464.06;5052420;28;20053;-61
2021/06/06 01:13:11;;;;;;;17.63;12.15;;;;;;;12.86;86.28;99463.22;5052293;28;20045;-61
2021/06/06 01:15:38;;;;;;;18.30;11.23;;;;;;;12.84;85.36;99463.25;5051522;28;20045;-61
2021/06/06 01:18:09;;;;;;;16.08;11.45;;;;;;;12.82;86.26;99462.41;5051875;28;20044;-62
2021/06/06 01:20:48;;;;;;;13.75;10.48;;;;;;;12.78;85.40;99461.56;5051715;28;20510;-61
2021/06/06 01:23:27;;;;;;;14.13;10.00;;;;;;;12.77;85.04;99459.81;5052303;28;20041;-62
2021/06/06 01:25:56;;;;;;;15.48;11.95;;;;;;;12.74;85.54;99459.00;5051772;28;20056;-61
2021/06/06 01:28:24;;;;;;;18.13;11.60;;;;;;;12.70;85.76;99458.16;5051638;28;20049;-61
2021/06/06 01:30:52;;;;;;;18.17;12.70;;;;;;;12.67;85.87;99455.56;5052173;28;20048;-62
2021/06/06 01:33:20;;;;;;;16.35;11.15;;;;;;;12.64;85.67;99460.84;5052149;28;20513;-62
2021/06/06 01:35:49;;;;;;;16.85;12.15;;;;;;;12.62;85.72;99454.78;5051751;28;20399;-62
2021/06/06 01:38:17;;;;;;;17.02;12.15;;;;;;;12.61;85.45;99458.25;5051935;28;20053;-61
2021/06/06 01:40:44;;;;;;;18.08;13.00;;;;;;;12.59;86.31;99460.88;5051616;28;20215;-62
2021/06/06 01:43:14;;;;;;;17.25;12.00;;;;;;;12.54;86.13;99460.09;5051716;28;20522;-62
2021/06/06 01:45:43;;;;;;;18.35;12.77;;;;;;;12.52;86.24;99453.13;5051698;28;20372;-62
2021/06/06 01:48:11;;;;;;;16.13;11.50;;;;;;;12.49;86.13;99454.03;5051793;28;20049;-62
2021/06/06 01:50:40;;;;;;;18.17;11.65;;;;;;;12.48;86.29;99449.69;5051991;28;20179;-62
2021/06/06 01:53:06;;;;;;;16.65;12.68;;;;;;;12.47;85.79;99447.09;5052077;28;20045;-62
2021/06/06 01:55:33;;;;;;;17.05;12.50;;;;;;;12.46;86.35;99445.34;5051785;28;20053;-61
2021/06/06 01:58:01;;;;;;;17.80;12.55;;;;;;;12.47;87.32;99460.16;5051392;28;20053;-61
2021/06/06 02:00:30;;;;;;;17.15;11.95;;;;;;;12.49;86.65;99461.03;5052027;28;20048;-62
2021/06/06 02:02:56;;;;;;;17.88;12.52;;;;;;;12.48;86.88;99459.28;5052075;28;20445;-62
2021/06/06 02:05:22;;;;;;;15.55;11.80;;;;;;;12.48;86.54;99452.28;5051774;28;20055;-62
2021/06/06 02:07:49;;;;;;;17.10;11.48;;;;;;;12.47;86.35;99449.72;5051566;28;20053;-62
2021/06/06 02:10:19;;;;;;;19.05;11.85;;;;;;;12.46;85.99;99455.81;5055127;28;20045;-63
2021/06/06 02:12:48;;;;;;;15.05;10.57;;;;;;;12.45;86.00;99460.19;5055918;28;20438;-62
2021/06/06 02:15:16;;;;;;;15.88;10.93;;;;;;;12.41;86.02;99459.34;5054984;28;20052;-61
2021/06/06 02:17:44;;;;;;;17.10;12.02;;;;;;;12.38;86.56;99459.34;5055490;28;20110;-62
2021/06/06 02:20:11;;;;;;;15.35;11.15;;;;;;;12.38;86.45;99455.88;5055028;28;20079;-61
2021/06/06 02:22:37;;;;;;;18.65;11.02;;;;;;;12.36;85.82;99461.13;5055005;28;20045;-61
2021/06/06 02:25:04;;;;;;;14.75;11.50;;;;;;;12.35;86.17;99466.38;5055212;28;20052;-60
2021/06/06 02:27:33;;;;;;;17.48;11.70;;;;;;;12.34;86.49;99467.25;5055067;28;20045;-61
2021/06/06 02:30:06;;;;;;;17.33;11.00;;;;;;;12.31;86.18;99468.16;5055195;28;20052;-62
2021/06/06 02:32:34;;;;;;;16.25;10.80;;;;;;;12.27;86.32;99461.22;5055120;28;20103;-61
2021/06/06 02:35:06;;;;;;;17.70;11.27;;;;;;;12.27;86.38;99465.56;5054783;28;20055;-61
2021/06/06 02:37:41;;;;;;;15.30;10.80;;;;;;;12.24;86.52;99460.38;5055037;28;20049;-60
2021/06/06 02:40:11;;;;;;;16.92;11.05;;;;;;;12.20;86.34;99464.78;5054970;28;20053;-61
2021/06/06 02:42:41;;;;;;;16.15;11.25;;;;;;;12.20;86.01;99462.16;5054778;28;20045;-61
2021/06/06 02:45:10;;;;;;;15.65;11.38;;;;;;;12.18;86.42;99461.31;5054583;28;20049;-62
2021/06/06 02:47:37;;;;;;;14.93;10.77;;;;;;;12.18;86.17;99463.91;5054653;28;20045;-61
2021/06/06 02:50:07;;;;;;;16.23;11.40;;;;;;;12.17;86.18;99464.78;5054576;28;20041;-62
2021/06/06 02:52:40;;;;;;;15.85;10.45;;;;;;;12.17;85.56;99462.16;5054709;28;20107;-63
2021/06/06 02:55:09;;;;;;;14.95;10.07;;;;;;;12.17;85.83;99465.66;5054962;28;20089;-62
2021/06/06 02:57:36;;;;;;;15.88;10.90;;;;;;;12.16;86.25;99457.84;5061974;28;20044;-61
2021/06/06 03:00:05;;;;;;;14.93;9.95;;;;;;;12.14;85.73;99464.81;5074666;28;20044;-62
2021/06/06 03:02:36;;;;;;;17.25;11.10;;;;;;;12.15;85.86;99466.53;5034536;28;20045;-62
2021/06/06 03:05:05;;;;;;;14.40;10.30;;;;;;;12.14;85.57;99465.69;5034878;28;20104;-62
2021/06/06 03:07:33;;;;;;;14.18;10.02;;;;;;;12.16;85.79;99469.16;5034223;28;20076;-62
2021/06/06 03:09:59;;;;;;;15.70;10.68;;;;;;;12.18;85.93;99471.75;5034548;28;20053;-61
2021/06/06 03:12:25;;;;;;;15.85;10.50;;;;;;;12.17;86.55;99472.63;5034244;28;20099;-61
2021/06/06 03:14:51;;;;;;;15.75;10.45;;;;;;;12.21;85.79;99472.59;5048166;28;20045;-61
2021/06/06 03:17:19;;;;;;;15.18;10.32;;;;;;;12.23;85.96;99475.16;5054116;28;20053;-61
2021/06/06 03:19:47;;;;;;;14.93;10.82;;;;;;;12.26;86.21;99480.38;5053358;28;20045;-62
2021/06/06 03:22:15;;;;;;;12.98;9.30;;;;;;;12.29;85.73;99469.91;5054320;28;20059;-62
2021/06/06 03:24:44;;;;;;;15.00;10.52;;;;;;;12.30;86.43;99476.84;5054518;28;20076;-62
2021/06/06 03:27:10;;;;;;;14.40;10.27;;;;;;;12.33;85.85;99474.22;5053853;28;20064;-62
2021/06/06 03:29:44;;;;;;;15.45;10.63;;;;;;;12.34;85.60;99470.72;5053998;28;20523;-62
2021/06/06 03:32:11;;;;;;;15.18;10.25;;;;;;;12.35;85.50;99464.63;5053966;28;20045;-62
2021/06/06 03:34:37;;;;;;;17.63;10.68;;;;;;;12.39;86.14;99470.69;5053896;28;20049;-62
2021/06/06 03:37:03;;;;;;;15.15;10.18;;;;;;;12.40;85.41;99468.03;5053967;28;20052;-62
2021/06/06 03:39:31;;;;;;;14.82;9.70;;;;;;;12.43;85.13;99468.88;5053647;28;20049;-62
2021/06/06 03:41:58;;;;;;;12.60;9.20;;;;;;;12.45;85.20;99469.78;5055938;28;20041;-63
2021/06/06 03:44:25;;;;;;;16.48;10.52;;;;;;;12.49;84.73;99471.47;5046163;28;20049;-63
2021/06/06 03:46:51;;;;;;;13.57;9.50;;;;;;;12.52;84.84;99466.19;5053552;28;20110;-63
2021/06/06 03:49:17;;;;;;;14.32;10.45;;;;;;;12.55;84.67;99474.03;5063402;28;20060;-63
2021/06/06 03:51:44;;;;;;;13.40;10.02;;;;;;;12.59;85.10;99483.56;5062290;28;20052;-64
2021/06/06 03:54:11;;;;;;;12.20;8.77;;;;;;;12.62;84.92;99478.31;5070524;28;20438;-63
2021/06/06 03:56:38;;;;;;;13.98;9.30;;;;;;;12.68;84.84;99478.25;5062868;28;20043;-64
2021/06/06 03:59:05;;;;;;;16.90;10.52;;;;;;;12.70;84.74;99481.69;5063566;28;20418;-64
2021/06/06 04:01:31;;;;;;;13.35;9.48;;;;;;;12.73;84.65;99476.41;5053581;28;20045;-63
2021/06/06 04:03:57;;;;;;;15.10;10.63;;;;;;;12.76;85.25;99481.63;5053377;28;20045;-63
2021/06/06 04:06:24;;;;;;;16.08;10.43;;;;;;;12.81;85.21;99484.19;5054905;28;20041;-64
2021/06/06 04:08:50;;;;;;;17.77;11.05;;;;;;;12.85;85.35;99487.63;5056388;28;20527;-64
2021/06/06 04:11:16;;;;;;;14.63;10.70;;;;;;;12.87;84.84;99481.53;5050199;28;20041;-64
2021/06/06 04:13:44;;;;;;;14.52;10.02;;;;;;;12.92;85.22;99481.47;5041876;28;20060;-64
2021/06/06 04:16:10;;;;;;;14.00;10.43;;;;;;;12.98;84.48;99489.22;5053051;28;20057;-64
2021/06/06 04:18:36;;;;;;;15.73;9.80;;;;;;;12.99;84.40;99483.97;5051919;28;20560;-63
2021/06/06 04:21:04;;;;;;;15.23;9.98;;;;;;;13.02;83.90;99483.06;5052538;28;20045;-63
2021/06/06 04:23:30;;;;;;;13.48;9.80;;;;;;;13.06;84.07;99487.38;5058434;28;20041;-63
2021/06/06 04:25:56;;;;;;;13.20;9.27;;;;;;;13.10;83.85;99486.44;5070933;28;20453;-63
2021/06/06 04:28:22;;;;;;;15.30;10.00;;;;;;;13.15;83.16;99484.66;5072760;28;20052;-63
2021/06/06 04:30:50;;;;;;;13.98;9.98;;;;;;;13.16;83.51;99483.78;5055593;28;20045;-63
2021/06/06 04:33:16;;;;;;;14.02;10.30;;;;;;;13.24;83.50;99486.31;5052675;28;20064;-63
2021/06/06 04:35:43;;;;;;;14.45;9.45;;;;;;;13.30;83.15;99491.47;5052509;28;20122;-62
2021/06/06 04:38:10;;;;;;;14.20;10.02;;;;;;;13.35;83.01;99492.28;5052673;28;20049;-63
2021/06/06 04:40:37;;;;;;;12.93;9.40;;;;;;;13.41;83.03;99491.31;5052811;28;20045;-63
2021/06/06 04:43:03;;;;;;;13.98;10.23;;;;;;;13.48;82.86;99487.75;5052784;28;20041;-63
2021/06/06 04:45:29;;;;;;;13.15;9.35;;;;;;;13.54;82.58;99490.28;5051389;28;20049;-63
2021/06/06 04:48:15;;;;;;;12.48;9.50;;;;;;;13.65;83.33;99490.13;5052803;28;20045;-62
2021/06/06 04:50:42;;;;;;;13.63;9.63;;;;;;;13.73;82.83;99487.41;5053008;28;20052;-63
2021/06/06 04:53:08;;;;;;;13.63;9.70;;;;;;;13.83;83.10;99489.00;5052928;28;20050;-62
2021/06/06 04:55:34;;;;;;;14.65;10.43;;;;;;;13.91;83.02;99491.50;5052397;28;20049;-63
2021/06/06 04:58:01;;;;;;;14.88;9.50;;;;;;;13.98;82.25;99487.91;5052581;28;20098;-63
2021/06/06 05:00:28;;;;;;;15.25;10.10;;;;;;;14.09;82.10;99479.84;5052577;28;20049;-66
2021/06/06 05:02:56;;;;;;;13.55;10.10;;;;;;;14.66;80.99;99482.38;5051144;28;20103;-63
2021/06/06 05:05:22;;;;;;;13.98;9.60;;;;;;;16.41;77.57;99487.28;5052251;28;20567;-63
2021/06/06 05:07:53;;;;;;;16.67;7.75;;;;;;;18.33;72.94;99480.78;5052145;28;20403;-63
2021/06/06 05:10:20;;;;;;;12.68;7.97;;;;;;;19.74;67.23;99473.00;5052075;28;20041;-63
2021/06/06 05:12:46;;;;;;;10.60;7.88;;;;;;;20.89;64.56;99467.31;5052134;28;20036;-63
2021/06/06 05:15:13;;;;;;;11.48;7.55;;;;;;;21.83;61.28;99471.81;5052165;28;20554;-63
2021/06/06 05:17:39;;;;;;;9.18;6.40;;;;;;;22.84;57.32;99475.59;5052317;28;20045;-62
2021/06/06 05:20:08;;;;;;;11.60;6.05;;;;;;;23.73;53.03;99465.47;5052087;28;20044;-62
2021/06/06 05:22:34;;;;;;;9.95;6.20;;;;;;;24.84;51.49;99467.00;5052071;28;20045;-63
2021/06/06 05:25:01;;;;;;;8.65;5.82;;;;;;;25.73;47.15;99466.72;5052304;28;20041;-63
2021/06/06 05:27:27;;;;;;;9.98;5.45;;;;;;;26.30;44.75;99465.66;5051720;28;20064;-63
2021/06/06 05:29:53;;;;;;;10.77;5.75;;;;;;;27.22;42.64;99469.16;5051590;28;20492;-63
2021/06/06 05:32:19;;;;;;;8.85;5.68;;;;;;;27.47;42.55;99467.41;5052013;28;20045;-64
2021/06/06 05:34:45;;;;;;;9.63;5.82;;;;;;;28.27;39.19;99458.84;5051963;28;20045;-64
2021/06/06 05:37:13;;;;;;;9.20;4.95;;;;;;;29.19;39.61;99467.81;5051871;28;20610;-63
2021/06/06 05:39:39;;;;;;;8.60;5.25;;;;;;;29.35;36.93;99463.91;5051927;28;20088;-63
2021/06/06 05:42:06;;;;;;;7.75;4.90;;;;;;;29.85;37.00;99461.63;5052315;28;20045;-64
2021/06/06 05:44:32;;;;;;;8.52;5.05;;;;;;;30.69;34.86;99460.88;5056320;28;20045;-64
2021/06/06 05:46:59;;;;;;;7.25;4.72;;;;;;;30.96;34.14;99460.34;5056329;28;20414;-63
2021/06/06 05:49:25;;;;;;;8.13;4.90;;;;;;;31.26;33.15;99459.50;5054578;28;20060;-64
2021/06/06 05:51:51;;;;;;;8.90;4.65;;;;;;;30.50;34.96;99459.78;5056208;28;20090;-64
2021/06/06 05:54:19;;;;;;;7.65;4.95;;;;;;;30.76;33.25;99457.53;5055711;28;20549;-63
2021/06/06 05:56:45;;;;;;;8.70;5.15;;;;;;;31.75;32.38;99455.09;5056130;28;20411;-64
2021/06/06 05:59:11;;;;;;;8.50;5.10;;;;;;;32.10;32.17;99458.28;5055486;28;20045;-64
2021/06/06 06:01:37;;;;;;;7.78;4.60;;;;;;;32.71;30.19;99463.38;5054409;28;20442;-62
2021/06/06 06:04:04;;;;;;;7.32;4.78;;;;;;;32.86;31.34;99465.59;5055553;28;20037;-62
2021/06/06 06:06:30;;;;;;;9.30;5.22;;;;;;;33.58;29.11;99461.31;5055926;28;20521;-63
2021/06/06 06:08:56;;;;;;;7.72;4.80;;;;;;;34.43;28.12;99459.16;5055605;28;20545;-63
2021/06/06 06:11:24;;;;;;;8.18;5.03;;;;;;;34.71;28.11;99454.47;5055366;28;20094;-63
2021/06/06 06:13:51;;;;;;;8.70;5.03;;;;;;;35.77;26.06;99463.25;5055655;28;20110;-63
2021/06/06 06:16:19;;;;;;;7.65;4.50;;;;;;;35.72;26.80;99462.91;5055629;28;20048;-63
2021/06/06 06:18:45;;;;;;;8.85;5.10;;;;;;;35.92;25.63;99477.00;5055366;28;20152;-63
2021/06/06 06:21:12;;;;;;;7.95;4.63;;;;;;;36.42;25.18;99466.06;5055572;28;20045;-63
2021/06/06 06:23:38;;;;;;;6.28;4.15;;;;;;;37.01;26.04;99470.38;5055611;28;20385;-63
2021/06/06 06:26:05;;;;;;;7.93;5.03;;;;;;;36.69;24.54;99465.91;5055093;28;20061;-63
2021/06/06 06:28:33;;;;;;;7.15;4.70;;;;;;;38.03;22.82;99474.00;5055252;28;20049;-63
2021/06/06 06:30:59;;;;;;;7.57;4.38;;;;;;;37.77;24.23;99468.94;5055260;28;20045;-63
2021/06/06 06:33:25;;;;;;;7.82;4.80;;;;;;;38.35;22.91;99463.06;5055126;28;20040;-62
2021/06/06 06:35:51;;;;;;;8.02;4.75;;;;;;;39.11;22.75;99463.88;5055150;28;20052;-62
2021/06/06 06:38:18;;;;;;;9.70;4.55;;;;;;;39.50;21.00;99464.63;5054878;28;20443;-63
2021/06/06 06:40:44;;;;;;;8.55;4.88;;;;;;;39.62;22.62;99460.34;5054872;28;20487;-63
2021/06/06 06:43:10;;;;;;;6.10;4.35;;;;;;;38.80;22.35;99461.31;5055061;28;20048;-63
2021/06/06 06:45:40;;;;;;;11.35;4.53;;;;;;;39.26;21.86;99458.44;5055091;28;20053;-63
2021/06/06 06:48:09;;;;;;;6.32;3.90;;;;;;;39.92;21.27;99455.69;5054880;28;20045;-63
2021/06/06 06:50:35;;;;;;;8.43;4.50;;;;;;;40.13;19.89;99449.38;5054521;28;20111;-63
2021/06/06 06:53:01;;;;;;;8.23;4.28;;;;;;;40.46;19.20;99459.78;5054871;28;20049;-63
2021/06/06 06:55:28;;;;;;;6.45;3.92;;;;;;;40.81;19.28;99442.56;5053765;28;20045;-63
2021/06/06 06:57:54;;;;;;;6.75;4.10;;;;;;;41.34;19.62;99450.25;5054430;28;20037;-63
2021/06/06 07:00:22;;;;;;;8.65;4.50;;;;;;;40.78;20.08;99448.47;5054041;28;20041;-63
2021/06/06 07:02:49;;;;;;;6.13;4.18;;;;;;;40.14;20.08;99437.41;5054530;28;20373;-62
2021/06/06 07:05:16;;;;;;;7.15;4.65;;;;;;;39.57;20.15;99452.75;5054467;28;20041;-62
2021/06/06 07:07:42;;;;;;;8.20;4.55;;;;;;;40.30;19.43;99443.63;5054352;28;20049;-62
2021/06/06 07:10:09;;;;;;;5.65;4.20;;;;;;;40.93;19.93;99441.81;5053928;28;20037;-63
2021/06/06 07:12:37;;;;;;;6.90;4.20;;;;;;;40.61;20.24;99451.47;5053955;28;20041;-63
2021/06/06 07:15:04;;;;;;;7.70;4.40;;;;;;;40.44;19.68;99448.16;5054402;28;20404;-62
2021/06/06 07:17:31;;;;;;;9.52;4.72;;;;;;;41.06;18.97;99448.41;5054319;28;20096;-63
2021/06/06 07:19:58;;;;;;;7.18;4.47;;;;;;;40.95;18.69;99447.09;5053880;28;20080;-62
2021/06/06 07:22:24;;;;;;;6.68;4.35;;;;;;;40.99;18.93;99458.47;5053620;28;20049;-63
2021/06/06 07:24:51;;;;;;;6.68;4.40;;;;;;;40.87;18.86;99448.09;5053893;28;20487;-62
2021/06/06 07:27:18;;;;;;;7.70;4.30;;;;;;;41.23;18.44;99451.69;5053550;28;20071;-63
2021/06/06 07:29:45;;;;;;;7.47;4.47;;;;;;;41.68;18.33;99450.19;5053482;28;20503;-62
2021/06/06 07:32:11;;;;;;;7.10;4.57;;;;;;;41.26;18.15;99451.28;5053990;28;20141;-62
2021/06/06 07:34:38;;;;;;;7.30;4.50;;;;;;;42.04;17.73;99453.66;5053404;28;20045;-62
2021/06/06 07:37:06;;;;;;;7.95;4.40;;;;;;;42.09;17.62;99446.50;5053641;28;20044;-62
2021/06/06 07:39:32;;;;;;;6.60;4.20;;;;;;;42.68;17.01;99438.50;5053695;28;20056;-62
2021/06/06 07:41:59;;;;;;;7.38;4.43;;;;;;;43.88;16.29;99442.72;5053224;28;20049;-63
2021/06/06 07:44:25;;;;;;;7.90;4.50;;;;;;;43.24;16.67;99442.56;5053583;28;20178;-63
2021/06/06 07:46:52;;;;;;;6.53;4.38;;;;;;;43.80;16.27;99439.16;5053843;28;20045;-63
2021/06/06 07:49:18;;;;;;;8.73;4.10;;;;;;;43.15;16.96;99438.38;5053392;28;20055;-63
2021/06/06 07:51:44;;;;;;;6.60;4.00;;;;;;;43.10;16.00;99435.44;5053242;28;20041;-63
2021/06/06 07:54:12;;;;;;;6.45;4.00;;;;;;;42.12;17.29;99441.66;5052308;28;20106;-63
2021/06/06 07:56:38;;;;;;;6.45;4.20;;;;;;;43.17;17.12;99431.63;5053453;28;20041;-63
2021/06/06 07:59:05;;;;;;;7.85;4.18;;;;;;;42.99;16.47;99443.28;5053344;28;20068;-62
2021/06/06 08:01:31;;;;;;;8.50;4.43;;;;;;;42.95;16.74;99436.56;5053008;28;20045;-62
2021/06/06 08:03:59;;;;;;;6.93;4.03;;;;;;;43.26;16.54;99424.84;5053407;28;20037;-63
2021/06/06 08:06:25;;;;;;;7.10;4.30;;;;;;;43.59;16.65;99429.34;5052302;28;20511;-62
2021/06/06 08:08:51;;;;;;;6.07;3.90;;;;;;;43.37;16.88;99433.47;5052730;28;20053;-62
2021/06/06 08:11:19;;;;;;;6.85;4.10;;;;;;;44.01;16.13;99431.59;5052646;28;20045;-62
2021/06/06 08:13:46;;;;;;;5.53;3.75;;;;;;;44.07;15.94;99429.88;5052649;28;20137;-62
2021/06/06 08:16:12;;;;;;;6.10;4.15;;;;;;;44.17;15.01;99433.03;5051689;28;20086;-62
2021/06/06 08:18:40;;;;;;;7.70;4.60;;;;;;;44.36;14.83;99433.88;5052372;28;20048;-63
2021/06/06 08:21:07;;;;;;;6.95;3.97;;;;;;;44.51;14.90;99441.81;5052720;28;20048;-63
2021/06/06 08:23:34;;;;;;;8.20;4.03;;;;;;;44.27;14.75;99432.50;5053115;28;20045;-63
2021/06/06 08:26:00;;;;;;;5.85;3.63;;;;;;;44.51;14.44;99430.81;5052615;28;20059;-62
2021/06/06 08:28:28;;;;;;;7.55;3.97;;;;;;;44.97;14.12;99435.84;5052330;28;20049;-63
2021/06/06 08:30:55;;;;;;;8.02;5.32;;;;;;;44.73;14.24;99429.34;5052733;28;20045;-63
2021/06/06 08:33:24;;;;;;;5.47;3.80;;;;;;;45.37;13.33;99437.31;5051342;28;20053;-62
2021/06/06 08:35:50;;;;;;;6.38;4.03;;;;;;;45.18;14.14;99430.97;5052654;28;20056;-63
2021/06/06 08:38:16;;;;;;;6.22;4.05;;;;;;;44.38;14.91;99429.00;5052572;28;20041;-62
2021/06/06 08:40:47;;;;;;;5.82;4.00;;;;;;;43.43;14.98;99421.59;5052171;28;20056;-63
2021/06/06 08:43:13;;;;;;;10.63;4.05;;;;;;;45.01;14.29;99425.25;5052575;28;20086;-63
2021/06/06 08:45:47;;;;;;;4.82;3.50;;;;;;;44.87;14.49;99424.53;5052555;28;20052;-63
2021/06/06 08:48:13;;;;;;;5.20;3.70;;;;;;;44.26;14.46;99428.91;5051805;28;20057;-62
2021/06/06 08:50:41;;;;;;;7.22;3.75;;;;;;;44.95;13.92;99438.00;5052296;28;20040;-63
2021/06/06 08:53:10;;;;;;;8.43;4.30;;;;;;;44.60;13.56;99430.31;5052180;28;20098;-62
2021/06/06 08:55:41;;;;;;;4.97;3.53;;;;;;;45.36;12.57;99435.63;5052132;28;20049;-62
2021/06/06 08:58:16;;;;;;;5.82;3.60;;;;;;;44.74;13.03;99421.94;5052270;28;20049;-62
2021/06/06 09:00:45;;;;;;;6.72;4.13;;;;;;;45.02;13.15;99418.69;5052155;28;20098;-62
2021/06/06 09:03:13;;;;;;;7.05;3.58;;;;;;;44.56;13.35;99423.59;5051876;28;20049;-62
2021/06/06 09:05:40;;;;;;;6.10;3.60;;;;;;;45.10;13.17;99412.00;5052101;28;20045;-62
2021/06/06 09:08:10;;;;;;;5.30;3.70;;;;;;;41.93;15.66;99424.97;5051632;28;20499;-62
2021/06/06 09:10:37;;;;;;;8.32;4.15;;;;;;;43.57;14.29;99417.75;5052192;28;20048;-63
2021/06/06 09:13:06;;;;;;;5.15;3.85;;;;;;;44.11;13.70;99411.91;5051716;28;20037;-63
2021/06/06 09:15:32;;;;;;;6.88;3.53;;;;;;;42.70;14.47;99417.19;5052034;28;20067;-63
2021/06/06 09:18:01;;;;;;;7.78;3.80;;;;;;;39.82;16.01;99413.34;5051459;28;20095;-62
2021/06/06 09:20:30;;;;;;;5.13;3.88;;;;;;;39.36;17.00;99407.16;5051941;28;20037;-62
2021/06/06 09:23:08;;;;;;;7.25;3.75;;;;;;;36.96;19.44;99419.31;5051678;28;20045;-62
2021/06/06 09:25:36;;;;;;;7.15;3.70;;;;;;;35.67;20.91;99417.31;5051764;28;20049;-63
2021/06/06 09:28:04;;;;;;;6.63;3.92;;;;;;;36.72;19.58;99411.22;5051511;28;20516;-62
2021/06/06 09:30:30;;;;;;;5.72;3.85;;;;;;;38.99;17.77;99417.19;5051865;28;20049;-63
2021/06/06 09:33:10;;;;;;;6.30;3.70;;;;;;;41.06;15.66;99413.69;5051589;28;20041;-62
2021/06/06 09:35:37;;;;;;;5.40;3.90;;;;;;;42.16;14.69;99410.06;5051822;28;20440;-63
2021/06/06 09:38:10;;;;;;;6.13;3.78;;;;;;;42.70;13.72;99411.72;5051514;28;20044;-63
2021/06/06 09:40:37;;;;;;;6.72;3.97;;;;;;;42.59;13.79;99406.88;5051747;28;20045;-63
2021/06/06 09:43:04;;;;;;;4.03;3.05;;;;;;;42.03;15.05;99417.22;5051774;28;20041;-63
2021/06/06 09:45:32;;;;;;;6.07;3.50;;;;;;;39.06;16.89;99405.53;5051652;28;20056;-62
2021/06/06 09:48:06;;;;;;;6.80;3.70;;;;;;;40.62;15.24;99405.84;5051649;28;20120;-62
2021/06/06 09:50:34;;;;;;;6.30;3.72;;;;;;;40.15;16.24;99406.34;5051677;28;20049;-63
2021/06/06 09:53:13;;;;;;;4.25;3.33;;;;;;;41.47;14.71;99417.47;5051325;28;20049;-63
2021/06/06 09:55:39;;;;;;;6.63;3.30;;;;;;;41.29;14.87;99405.19;5050112;28;20509;-62
2021/06/06 09:58:11;;;;;;;6.47;3.47;;;;;;;39.94;16.23;99409.09;5051413;28;20208;-62
2021/06/06 10:00:38;;;;;;;6.50;3.60;;;;;;;39.62;16.23;99411.25;5051660;28;20103;-62
2021/06/06 10:03:17;;;;;;;5.85;3.28;;;;;;;41.22;14.87;99406.22;5051271;28;20041;-62
2021/06/06 10:05:44;;;;;;;6.00;3.70;;;;;;;42.21;13.93;99400.16;5051457;28;20049;-63
2021/06/06 10:08:17;;;;;;;4.55;3.40;;;;;;;43.24;13.19;99401.44;5051250;28;20044;-62
2021/06/06 10:10:46;;;;;;;5.95;3.65;;;;;;;42.93;13.14;99389.31;5051220;28;20522;-63
2021/06/06 10:13:13;;;;;;;4.85;3.22;;;;;;;42.37;13.30;99401.63;5051493;28;20048;-63
2021/06/06 10:15:43;;;;;;;8.80;3.67;;;;;;;43.30;13.29;99394.28;5051369;28;20045;-63
2021/06/06 10:18:14;;;;;;;4.68;3.30;;;;;;;43.14;12.73;99388.19;5051510;28;20077;-63
2021/06/06 10:20:41;;;;;;;5.38;3.00;;;;;;;43.16;12.36;99391.56;5051590;28;20056;-64
2021/06/06 10:23:10;;;;;;;5.65;3.28;;;;;;;42.09;13.56;99380.78;5051109;28;20533;-64
2021/06/06 10:25:42;;;;;;;4.38;3.20;;;;;;;42.83;13.20;99378.78;5050947;28;20056;-63
2021/06/06 10:28:08;;;;;;;4.70;3.13;;;;;;;43.14;12.83;99384.59;5050127;28;20693;-64
2021/06/06 10:30:37;;;;;;;4.75;3.08;;;;;;;42.78;12.66;99370.38;5053847;28;20045;-64
2021/06/06 10:33:11;;;;;;;5.07;2.90;;;;;;;42.56;13.20;99374.41;5055010;28;20041;-63
2021/06/06 10:35:39;;;;;;;5.72;3.20;;;;;;;42.99;12.62;99382.97;5054778;28;20048;-63
2021/06/06 10:38:05;;;;;;;3.55;2.80;;;;;;;43.96;12.25;99371.06;5054927;28;20407;-63
2021/06/06 10:40:35;;;;;;;4.60;2.90;;;;;;;44.48;12.08;99362.53;5054545;28;20045;-63
2021/06/06 10:43:02;;;;;;;5.25;3.00;;;;;;;44.61;11.15;99362.44;5054959;28;20051;-63
2021/06/06 10:45:30;;;;;;;4.40;3.00;;;;;;;43.87;11.96;99361.41;5054481;28;20056;-63
2021/06/06 10:47:58;;;;;;;4.85;3.00;;;;;;;43.83;12.14;99367.34;5054806;28;20049;-63
2021/06/06 10:50:30;;;;;;;5.45;3.03;;;;;;;42.68;11.81;99362.59;5054270;28;20556;-63
2021/06/06 10:53:08;;;;;;;4.68;3.00;;;;;;;42.32;12.80;99357.59;5054643;28;20045;-63
2021/06/06 10:55:35;;;;;;;5.43;3.38;;;;;;;43.34;12.02;99365.34;5048098;28;20090;-63
2021/06/06 10:58:09;;;;;;;4.75;2.90;;;;;;;41.88;12.86;99362.66;5054251;28;20091;-63
2021/06/06 11:00:37;;;;;;;5.00;3.17;;;;;;;41.26;12.77;99361.88;5054668;28;20048;-62
2021/06/06 11:03:05;;;;;;;4.82;2.95;;;;;;;41.48;13.70;99367.19;5054511;28;20041;-63
2021/06/06 11:05:44;;;;;;;4.68;3.15;;;;;;;41.39;13.25;99363.78;5054078;28;20041;-62
2021/06/06 11:08:37;;;;;;;4.82;2.92;;;;;;;41.79;13.06;99363.06;5054356;28;20052;-62
2021/06/06 11:11:14;;;;;;;5.05;2.80;;;;;;;42.06;13.83;99363.94;5054259;28;20095;-62
2021/06/06 11:13:41;;;;;;;6.05;3.00;;;;;;;41.78;13.20;99361.38;5070976;28;20446;-63
2021/06/06 11:16:08;;;;;;;4.93;2.80;;;;;;;41.21;13.35;99366.28;5053791;28;20487;-63
2021/06/06 11:18:44;;;;;;;4.28;2.88;;;;;;;42.04;12.95;99361.41;5054214;28;20045;-63
2021/06/06 11:21:10;;;;;;;7.80;3.33;;;;;;;41.95;12.76;99356.31;5054412;28;20402;-63
2021/06/06 11:23:40;;;;;;;4.53;2.85;;;;;;;41.88;12.39;99346.22;5053935;28;20056;-63
2021/06/06 11:26:16;;;;;;;5.85;2.97;;;;;;;42.26;12.21;99355.69;5053817;28;20071;-63
2021/06/06 11:28:42;;;;;;;5.90;3.15;;;;;;;42.13;12.85;99347.50;5046222;28;20045;-64
2021/06/06 11:31:21;;;;;;;6.18;3.08;;;;;;;41.85;13.21;99354.00;5054224;28;20048;-64